sensor_id;sensor_type;location;lat;lon;timestamp;temperature;humidity
75022;SHT31;63583;49.976;20.182;2024-01-07T00:00:27;-2.25;99.99
75022;SHT31;63583;49.976;20.182;2024-01-07T00:03:13;-2.26;99.99
75022;SHT31;63583;49.976;20.182;2024-01-07T00:05:39;-2.29;99.99
75022;SHT31;63583;49.976;20.182;2024-01-07T00:08:05;-2.26;99.99
75022;SHT31;63583;49.976;20.182;2024-01-07T00:10:31;-2.28;99.99
75022;SHT31;63583;49.976;20.182;2024-01-07T00:12:57;-2.30;99.99
75022;SHT31;63583;49.976;20.182;2024-01-07T00:15:23;-2.32;99.99
75022;SHT31;63583;49.976;20.182;2024-01-07T00:17:52;-2.30;99.99
75022;SHT31;63583;49.976;20.182;2024-01-07T00:20:18;-2.28;99.99
75022;SHT31;63583;49.976;20.182;2024-01-07T00:22:43;-2.30;99.99
75022;SHT31;63583;49.976;20.182;2024-01-07T00:25:11;-2.29;99.99
75022;SHT31;63583;49.976;20.182;2024-01-07T00:27:36;-2.25;99.99
75022;SHT31;63583;49.976;20.182;2024-01-07T00:30:03;-2.34;99.99
75022;SHT31;63583;49.976;20.182;2024-01-07T00:32:28;-2.30;99.99
75022;SHT31;63583;49.976;20.182;2024-01-07T00:34:55;-2.36;99.99
75022;SHT31;63583;49.976;20.182;2024-01-07T00:37:20;-2.37;99.99
75022;SHT31;63583;49.976;20.182;2024-01-07T00:39:46;-2.37;99.99
75022;SHT31;63583;49.976;20.182;2024-01-07T00:42:12;-2.40;99.99
75022;SHT31;63583;49.976;20.182;2024-01-07T00:44:38;-2.39;99.99
75022;SHT31;63583;49.976;20.182;2024-01-07T00:47:04;-2.42;99.99
75022;SHT31;63583;49.976;20.182;2024-01-07T00:49:30;-2.43;99.99
75022;SHT31;63583;49.976;20.182;2024-01-07T00:51:56;-2.46;99.89
75022;SHT31;63583;49.976;20.182;2024-01-07T00:54:22;-2.53;99.95
75022;SHT31;63583;49.976;20.182;2024-01-07T00:56:48;-2.54;99.99
75022;SHT31;63583;49.976;20.182;2024-01-07T00:59:14;-2.56;99.99
75022;SHT31;63583;49.976;20.182;2024-01-07T01:01:39;-2.57;99.99
75022;SHT31;63583;49.976;20.182;2024-01-07T01:04:05;-2.56;99.99
75022;SHT31;63583;49.976;20.182;2024-01-07T01:06:31;-2.58;99.99
75022;SHT31;63583;49.976;20.182;2024-01-07T01:08:57;-2.64;99.85
75022;SHT31;63583;49.976;20.182;2024-01-07T01:11:23;-2.68;99.92
75022;SHT31;63583;49.976;20.182;2024-01-07T01:13:49;-2.74;99.62
75022;SHT31;63583;49.976;20.182;2024-01-07T01:16:14;-2.70;99.62
75022;SHT31;63583;49.976;20.182;2024-01-07T01:18:40;-2.75;99.97
75022;SHT31;63583;49.976;20.182;2024-01-07T01:21:06;-2.80;99.99
75022;SHT31;63583;49.976;20.182;2024-01-07T01:23:33;-2.80;99.99
75022;SHT31;63583;49.976;20.182;2024-01-07T01:25:58;-2.77;99.99
75022;SHT31;63583;49.976;20.182;2024-01-07T01:28:24;-2.81;99.99
75022;SHT31;63583;49.976;20.182;2024-01-07T01:30:50;-2.81;99.99
75022;SHT31;63583;49.976;20.182;2024-01-07T01:33:16;-2.80;99.99
75022;SHT31;63583;49.976;20.182;2024-01-07T01:35:42;-2.78;99.64
75022;SHT31;63583;49.976;20.182;2024-01-07T01:38:09;-2.87;99.77
75022;SHT31;63583;49.976;20.182;2024-01-07T01:40:35;-2.88;99.56
75022;SHT31;63583;49.976;20.182;2024-01-07T01:43:00;-2.94;99.87
75022;SHT31;63583;49.976;20.182;2024-01-07T01:45:26;-2.92;99.86
75022;SHT31;63583;49.976;20.182;2024-01-07T01:47:52;-2.94;99.99
75022;SHT31;63583;49.976;20.182;2024-01-07T01:50:18;-2.98;99.99
75022;SHT31;63583;49.976;20.182;2024-01-07T01:52:45;-2.96;99.99
75022;SHT31;63583;49.976;20.182;2024-01-07T01:55:11;-3.05;99.89
75022;SHT31;63583;49.976;20.182;2024-01-07T01:57:38;-3.03;99.89
75022;SHT31;63583;49.976;20.182;2024-01-07T02:00:05;-3.09;99.54
75022;SHT31;63583;49.976;20.182;2024-01-07T02:02:32;-3.11;99.76
75022;SHT31;63583;49.976;20.182;2024-01-07T02:05:03;-3.13;99.64
75022;SHT31;63583;49.976;20.182;2024-01-07T02:07:32;-3.15;99.81
75022;SHT31;63583;49.976;20.182;2024-01-07T02:09:59;-3.13;99.92
75022;SHT31;63583;49.976;20.182;2024-01-07T02:12:25;-3.19;99.60
75022;SHT31;63583;49.976;20.182;2024-01-07T02:14:51;-3.17;99.61
75022;SHT31;63583;49.976;20.182;2024-01-07T02:17:18;-3.17;99.73
75022;SHT31;63583;49.976;20.182;2024-01-07T02:19:44;-3.22;99.83
75022;SHT31;63583;49.976;20.182;2024-01-07T02:22:10;-3.24;99.88
75022;SHT31;63583;49.976;20.182;2024-01-07T02:24:36;-3.29;99.88
75022;SHT31;63583;49.976;20.182;2024-01-07T02:27:02;-3.29;99.44
75022;SHT31;63583;49.976;20.182;2024-01-07T02:29:28;-3.29;99.73
75022;SHT31;63583;49.976;20.182;2024-01-07T02:31:55;-3.35;99.57
75022;SHT31;63583;49.976;20.182;2024-01-07T02:34:20;-3.35;99.53
75022;SHT31;63583;49.976;20.182;2024-01-07T02:36:46;-3.35;99.86
75022;SHT31;63583;49.976;20.182;2024-01-07T02:39:12;-3.33;99.99
75022;SHT31;63583;49.976;20.182;2024-01-07T02:41:38;-3.36;99.99
75022;SHT31;63583;49.976;20.182;2024-01-07T02:44:04;-3.36;99.96
75022;SHT31;63583;49.976;20.182;2024-01-07T02:46:30;-3.40;99.99
75022;SHT31;63583;49.976;20.182;2024-01-07T02:48:56;-3.43;99.39
75022;SHT31;63583;49.976;20.182;2024-01-07T02:51:22;-3.47;99.52
75022;SHT31;63583;49.976;20.182;2024-01-07T02:53:48;-3.54;99.60
75022;SHT31;63583;49.976;20.182;2024-01-07T02:56:14;-3.60;98.78
75022;SHT31;63583;49.976;20.182;2024-01-07T02:58:39;-3.67;98.41
75022;SHT31;63583;49.976;20.182;2024-01-07T03:01:08;-3.67;98.91
75022;SHT31;63583;49.976;20.182;2024-01-07T03:03:35;-3.66;99.49
75022;SHT31;63583;49.976;20.182;2024-01-07T03:06:01;-3.67;99.62
75022;SHT31;63583;49.976;20.182;2024-01-07T03:08:28;-3.64;99.78
75022;SHT31;63583;49.976;20.182;2024-01-07T03:10:54;-3.61;99.99
75022;SHT31;63583;49.976;20.182;2024-01-07T03:13:20;-3.64;99.99
75022;SHT31;63583;49.976;20.182;2024-01-07T03:15:46;-3.70;99.21
75022;SHT31;63583;49.976;20.182;2024-01-07T03:18:12;-3.70;99.67
75022;SHT31;63583;49.976;20.182;2024-01-07T03:20:38;-3.77;99.94
75022;SHT31;63583;49.976;20.182;2024-01-07T03:23:03;-3.84;99.35
75022;SHT31;63583;49.976;20.182;2024-01-07T03:25:29;-3.95;98.73
75022;SHT31;63583;49.976;20.182;2024-01-07T03:27:55;-3.92;98.49
75022;SHT31;63583;49.976;20.182;2024-01-07T03:30:21;-3.94;98.41
75022;SHT31;63583;49.976;20.182;2024-01-07T03:32:47;-3.95;98.69
75022;SHT31;63583;49.976;20.182;2024-01-07T03:35:13;-3.99;98.98
75022;SHT31;63583;49.976;20.182;2024-01-07T03:37:38;-3.98;99.55
75022;SHT31;63583;49.976;20.182;2024-01-07T03:40:12;-3.99;99.82
75022;SHT31;63583;49.976;20.182;2024-01-07T03:42:38;-4.02;99.92
75022;SHT31;63583;49.976;20.182;2024-01-07T03:45:04;-4.10;99.31
75022;SHT31;63583;49.976;20.182;2024-01-07T03:47:30;-4.15;98.83
75022;SHT31;63583;49.976;20.182;2024-01-07T03:49:57;-4.25;98.35
75022;SHT31;63583;49.976;20.182;2024-01-07T03:52:23;-4.20;98.48
75022;SHT31;63583;49.976;20.182;2024-01-07T03:54:49;-4.25;98.38
75022;SHT31;63583;49.976;20.182;2024-01-07T03:57:14;-4.28;98.68
75022;SHT31;63583;49.976;20.182;2024-01-07T03:59:40;-4.28;98.62
75022;SHT31;63583;49.976;20.182;2024-01-07T04:02:06;-4.26;98.71
75022;SHT31;63583;49.976;20.182;2024-01-07T04:04:32;-4.29;98.38
75022;SHT31;63583;49.976;20.182;2024-01-07T04:06:58;-4.29;98.47
75022;SHT31;63583;49.976;20.182;2024-01-07T04:09:24;-4.28;98.39
75022;SHT31;63583;49.976;20.182;2024-01-07T04:11:50;-4.30;98.58
75022;SHT31;63583;49.976;20.182;2024-01-07T04:14:16;-4.28;98.84
75022;SHT31;63583;49.976;20.182;2024-01-07T04:16:42;-4.33;98.96
75022;SHT31;63583;49.976;20.182;2024-01-07T04:19:08;-4.25;98.94
75022;SHT31;63583;49.976;20.182;2024-01-07T04:21:33;-4.36;98.12
75022;SHT31;63583;49.976;20.182;2024-01-07T04:24:01;-4.36;98.38
75022;SHT31;63583;49.976;20.182;2024-01-07T04:26:27;-4.33;98.33
75022;SHT31;63583;49.976;20.182;2024-01-07T04:28:53;-4.39;98.33
75022;SHT31;63583;49.976;20.182;2024-01-07T04:31:19;-4.39;98.78
75022;SHT31;63583;49.976;20.182;2024-01-07T04:33:45;-4.43;98.53
75022;SHT31;63583;49.976;20.182;2024-01-07T04:36:10;-4.43;98.13
75022;SHT31;63583;49.976;20.182;2024-01-07T04:38:36;-4.42;98.83
75022;SHT31;63583;49.976;20.182;2024-01-07T04:41:02;-4.40;98.73
75022;SHT31;63583;49.976;20.182;2024-01-07T04:43:28;-4.40;99.25
75022;SHT31;63583;49.976;20.182;2024-01-07T04:45:54;-4.36;99.28
75022;SHT31;63583;49.976;20.182;2024-01-07T04:48:20;-4.46;99.04
75022;SHT31;63583;49.976;20.182;2024-01-07T04:50:46;-4.45;99.05
75022;SHT31;63583;49.976;20.182;2024-01-07T04:53:12;-4.40;98.91
75022;SHT31;63583;49.976;20.182;2024-01-07T04:55:38;-4.42;98.52
75022;SHT31;63583;49.976;20.182;2024-01-07T04:58:04;-4.40;98.74
75022;SHT31;63583;49.976;20.182;2024-01-07T05:00:30;-4.43;98.08
75022;SHT31;63583;49.976;20.182;2024-01-07T05:02:56;-4.45;98.41
75022;SHT31;63583;49.976;20.182;2024-01-07T05:05:21;-4.47;99.17
75022;SHT31;63583;49.976;20.182;2024-01-07T05:07:47;-4.40;99.44
75022;SHT31;63583;49.976;20.182;2024-01-07T05:10:13;-4.46;99.12
75022;SHT31;63583;49.976;20.182;2024-01-07T05:12:39;-4.42;99.27
75022;SHT31;63583;49.976;20.182;2024-01-07T05:15:05;-4.40;99.68
75022;SHT31;63583;49.976;20.182;2024-01-07T05:17:32;-4.43;99.38
75022;SHT31;63583;49.976;20.182;2024-01-07T05:19:57;-4.43;99.65
75022;SHT31;63583;49.976;20.182;2024-01-07T05:22:24;-4.43;99.52
75022;SHT31;63583;49.976;20.182;2024-01-07T05:24:49;-4.54;99.44
75022;SHT31;63583;49.976;20.182;2024-01-07T05:27:15;-4.53;99.09
75022;SHT31;63583;49.976;20.182;2024-01-07T05:29:44;-4.56;99.42
75022;SHT31;63583;49.976;20.182;2024-01-07T05:32:11;-4.54;99.38
75022;SHT31;63583;49.976;20.182;2024-01-07T05:34:37;-4.54;99.49
75022;SHT31;63583;49.976;20.182;2024-01-07T05:37:03;-4.52;99.54
75022;SHT31;63583;49.976;20.182;2024-01-07T05:39:29;-4.56;99.52
75022;SHT31;63583;49.976;20.182;2024-01-07T05:41:55;-4.56;99.46
75022;SHT31;63583;49.976;20.182;2024-01-07T05:44:20;-4.54;99.71
75022;SHT31;63583;49.976;20.182;2024-01-07T05:46:46;-4.57;99.60
75022;SHT31;63583;49.976;20.182;2024-01-07T05:49:12;-4.56;99.51
75022;SHT31;63583;49.976;20.182;2024-01-07T05:51:41;-4.56;99.70
75022;SHT31;63583;49.976;20.182;2024-01-07T05:54:07;-4.56;99.64
75022;SHT31;63583;49.976;20.182;2024-01-07T05:56:43;-4.63;99.74
75022;SHT31;63583;49.976;20.182;2024-01-07T05:59:08;-4.58;99.97
75022;SHT31;63583;49.976;20.182;2024-01-07T06:01:34;-4.58;99.62
75022;SHT31;63583;49.976;20.182;2024-01-07T06:04:00;-4.61;99.65
75022;SHT31;63583;49.976;20.182;2024-01-07T06:06:26;-4.60;99.99
75022;SHT31;63583;49.976;20.182;2024-01-07T06:08:52;-4.61;99.48
75022;SHT31;63583;49.976;20.182;2024-01-07T06:11:18;-4.63;99.75
75022;SHT31;63583;49.976;20.182;2024-01-07T06:13:46;-4.66;99.10
75022;SHT31;63583;49.976;20.182;2024-01-07T06:16:12;-4.68;99.21
75022;SHT31;63583;49.976;20.182;2024-01-07T06:18:38;-4.66;99.12
75022;SHT31;63583;49.976;20.182;2024-01-07T06:21:04;-4.61;99.73
75022;SHT31;63583;49.976;20.182;2024-01-07T06:23:32;-4.52;99.86
75022;SHT31;63583;49.976;20.182;2024-01-07T06:25:58;-4.54;99.70
75022;SHT31;63583;49.976;20.182;2024-01-07T06:28:24;-4.58;99.88
75022;SHT31;63583;49.976;20.182;2024-01-07T06:30:50;-4.63;99.68
75022;SHT31;63583;49.976;20.182;2024-01-07T06:33:16;-4.60;99.19
75022;SHT31;63583;49.976;20.182;2024-01-07T06:35:42;-4.68;99.39
75022;SHT31;63583;49.976;20.182;2024-01-07T06:38:08;-4.64;99.35
75022;SHT31;63583;49.976;20.182;2024-01-07T06:40:34;-4.67;99.39
75022;SHT31;63583;49.976;20.182;2024-01-07T06:42:59;-4.66;99.67
75022;SHT31;63583;49.976;20.182;2024-01-07T06:45:25;-4.66;99.25
75022;SHT31;63583;49.976;20.182;2024-01-07T06:47:51;-4.67;99.40
75022;SHT31;63583;49.976;20.182;2024-01-07T06:50:17;-4.64;99.59
75022;SHT31;63583;49.976;20.182;2024-01-07T06:52:45;-4.57;99.61
75022;SHT31;63583;49.976;20.182;2024-01-07T06:55:11;-4.54;99.73
75022;SHT31;63583;49.976;20.182;2024-01-07T06:57:36;-4.56;99.77
75022;SHT31;63583;49.976;20.182;2024-01-07T07:00:03;-4.56;99.37
75022;SHT31;63583;49.976;20.182;2024-01-07T07:02:30;-4.50;98.99
75022;SHT31;63583;49.976;20.182;2024-01-07T07:04:56;-4.52;98.83
75022;SHT31;63583;49.976;20.182;2024-01-07T07:07:21;-4.53;99.17
75022;SHT31;63583;49.976;20.182;2024-01-07T07:09:47;-4.61;98.78
75022;SHT31;63583;49.976;20.182;2024-01-07T07:12:13;-4.61;99.23
75022;SHT31;63583;49.976;20.182;2024-01-07T07:14:39;-4.67;97.87
75022;SHT31;63583;49.976;20.182;2024-01-07T07:17:05;-4.64;97.57
75022;SHT31;63583;49.976;20.182;2024-01-07T07:19:31;-4.57;98.46
75022;SHT31;63583;49.976;20.182;2024-01-07T07:21:57;-4.64;98.20
75022;SHT31;63583;49.976;20.182;2024-01-07T07:24:23;-4.47;98.48
75022;SHT31;63583;49.976;20.182;2024-01-07T07:26:48;-4.63;98.08
75022;SHT31;63583;49.976;20.182;2024-01-07T07:29:14;-4.73;98.36
75022;SHT31;63583;49.976;20.182;2024-01-07T07:31:40;-4.64;98.41
75022;SHT31;63583;49.976;20.182;2024-01-07T07:34:08;-4.63;98.35
75022;SHT31;63583;49.976;20.182;2024-01-07T07:36:34;-4.50;97.84
75022;SHT31;63583;49.976;20.182;2024-01-07T07:39:00;-4.53;98.11
75022;SHT31;63583;49.976;20.182;2024-01-07T07:41:26;-4.50;97.75
75022;SHT31;63583;49.976;20.182;2024-01-07T07:43:52;-4.67;97.62
75022;SHT31;63583;49.976;20.182;2024-01-07T07:46:17;-4.56;97.43
75022;SHT31;63583;49.976;20.182;2024-01-07T07:48:43;-4.57;98.24
75022;SHT31;63583;49.976;20.182;2024-01-07T07:51:09;-4.63;97.67
75022;SHT31;63583;49.976;20.182;2024-01-07T07:53:38;-4.57;97.46
75022;SHT31;63583;49.976;20.182;2024-01-07T07:56:05;-4.58;97.15
75022;SHT31;63583;49.976;20.182;2024-01-07T07:58:32;-4.64;96.97
75022;SHT31;63583;49.976;20.182;2024-01-07T08:00:58;-4.71;97.00
75022;SHT31;63583;49.976;20.182;2024-01-07T08:03:24;-4.74;96.99
75022;SHT31;63583;49.976;20.182;2024-01-07T08:05:49;-4.71;96.57
75022;SHT31;63583;49.976;20.182;2024-01-07T08:08:15;-4.66;97.07
75022;SHT31;63583;49.976;20.182;2024-01-07T08:10:43;-4.66;96.57
75022;SHT31;63583;49.976;20.182;2024-01-07T08:13:09;-4.70;95.81
75022;SHT31;63583;49.976;20.182;2024-01-07T08:15:35;-4.63;95.83
75022;SHT31;63583;49.976;20.182;2024-01-07T08:18:02;-4.67;95.82
75022;SHT31;63583;49.976;20.182;2024-01-07T08:20:28;-4.64;95.94
75022;SHT31;63583;49.976;20.182;2024-01-07T08:22:55;-4.60;96.04
75022;SHT31;63583;49.976;20.182;2024-01-07T08:25:21;-4.53;95.96
75022;SHT31;63583;49.976;20.182;2024-01-07T08:27:49;-4.39;96.52
75022;SHT31;63583;49.976;20.182;2024-01-07T08:30:14;-4.33;95.92
75022;SHT31;63583;49.976;20.182;2024-01-07T08:32:43;-4.37;95.19
75022;SHT31;63583;49.976;20.182;2024-01-07T08:35:10;-4.45;94.18
75022;SHT31;63583;49.976;20.182;2024-01-07T08:37:39;-4.53;94.63
75022;SHT31;63583;49.976;20.182;2024-01-07T08:40:05;-4.45;94.34
75022;SHT31;63583;49.976;20.182;2024-01-07T08:42:31;-4.32;95.30
75022;SHT31;63583;49.976;20.182;2024-01-07T08:44:57;-4.47;94.45
75022;SHT31;63583;49.976;20.182;2024-01-07T08:47:27;-4.34;94.24
75022;SHT31;63583;49.976;20.182;2024-01-07T08:49:54;-4.37;93.87
75022;SHT31;63583;49.976;20.182;2024-01-07T08:52:23;-4.30;94.34
75022;SHT31;63583;49.976;20.182;2024-01-07T08:54:51;-4.32;93.75
75022;SHT31;63583;49.976;20.182;2024-01-07T08:57:18;-4.30;94.37
75022;SHT31;63583;49.976;20.182;2024-01-07T08:59:44;-4.26;94.88
75022;SHT31;63583;49.976;20.182;2024-01-07T09:02:11;-4.12;94.69
75022;SHT31;63583;49.976;20.182;2024-01-07T09:04:40;-4.33;93.42
75022;SHT31;63583;49.976;20.182;2024-01-07T09:07:06;-4.28;93.85
75022;SHT31;63583;49.976;20.182;2024-01-07T09:09:32;-4.45;93.90
75022;SHT31;63583;49.976;20.182;2024-01-07T09:11:59;-4.36;94.50
75022;SHT31;63583;49.976;20.182;2024-01-07T09:14:26;-4.33;93.33
75022;SHT31;63583;49.976;20.182;2024-01-07T09:17:00;-4.33;93.56
75022;SHT31;63583;49.976;20.182;2024-01-07T09:19:29;-4.37;93.54
75022;SHT31;63583;49.976;20.182;2024-01-07T09:21:56;-4.20;93.39
75022;SHT31;63583;49.976;20.182;2024-01-07T09:24:23;-4.12;93.34
75022;SHT31;63583;49.976;20.182;2024-01-07T09:26:54;-4.22;92.28
75022;SHT31;63583;49.976;20.182;2024-01-07T09:29:24;-4.09;93.19
75022;SHT31;63583;49.976;20.182;2024-01-07T09:31:52;-4.15;92.80
75022;SHT31;63583;49.976;20.182;2024-01-07T09:34:19;-4.22;92.47
75022;SHT31;63583;49.976;20.182;2024-01-07T09:36:45;-4.25;93.36
75022;SHT31;63583;49.976;20.182;2024-01-07T09:39:11;-4.20;92.86
75022;SHT31;63583;49.976;20.182;2024-01-07T09:41:40;-4.25;93.05
75022;SHT31;63583;49.976;20.182;2024-01-07T09:44:06;-4.30;92.61
75022;SHT31;63583;49.976;20.182;2024-01-07T09:46:38;-4.32;93.23
75022;SHT31;63583;49.976;20.182;2024-01-07T09:49:05;-4.30;92.56
75022;SHT31;63583;49.976;20.182;2024-01-07T09:51:35;-4.43;92.57
75022;SHT31;63583;49.976;20.182;2024-01-07T09:54:07;-4.40;92.37
75022;SHT31;63583;49.976;20.182;2024-01-07T09:56:43;-4.43;92.64
75022;SHT31;63583;49.976;20.182;2024-01-07T09:59:13;-4.34;93.01
75022;SHT31;63583;49.976;20.182;2024-01-07T10:01:44;-4.29;92.82
75022;SHT31;63583;49.976;20.182;2024-01-07T10:04:15;-4.30;92.83
75022;SHT31;63583;49.976;20.182;2024-01-07T10:06:41;-4.33;92.97
75022;SHT31;63583;49.976;20.182;2024-01-07T10:09:13;-4.32;92.66
75022;SHT31;63583;49.976;20.182;2024-01-07T10:11:40;-4.40;93.25
75022;SHT31;63583;49.976;20.182;2024-01-07T10:14:08;-4.36;93.67
75022;SHT31;63583;49.976;20.182;2024-01-07T10:16:35;-4.37;92.38
75022;SHT31;63583;49.976;20.182;2024-01-07T10:19:01;-4.47;93.11
75022;SHT31;63583;49.976;20.182;2024-01-07T10:21:27;-4.30;93.27
75022;SHT31;63583;49.976;20.182;2024-01-07T10:24:13;-4.47;93.07
75022;SHT31;63583;49.976;20.182;2024-01-07T10:26:40;-4.52;92.82
75022;SHT31;63583;49.976;20.182;2024-01-07T10:29:07;-4.54;93.11
75022;SHT31;63583;49.976;20.182;2024-01-07T10:31:37;-4.54;93.19
75022;SHT31;63583;49.976;20.182;2024-01-07T10:34:07;-4.43;93.47
75022;SHT31;63583;49.976;20.182;2024-01-07T10:36:34;-4.54;92.93
75022;SHT31;63583;49.976;20.182;2024-01-07T10:39:01;-4.47;93.68
75022;SHT31;63583;49.976;20.182;2024-01-07T10:41:29;-4.56;93.11
75022;SHT31;63583;49.976;20.182;2024-01-07T10:43:57;-4.34;93.51
75022;SHT31;63583;49.976;20.182;2024-01-07T10:46:24;-4.36;93.82
75022;SHT31;63583;49.976;20.182;2024-01-07T10:49:00;-4.33;93.27
75022;SHT31;63583;49.976;20.182;2024-01-07T10:51:27;-4.30;93.20
75022;SHT31;63583;49.976;20.182;2024-01-07T10:53:56;-4.36;93.77
75022;SHT31;63583;49.976;20.182;2024-01-07T10:56:23;-4.30;94.50
75022;SHT31;63583;49.976;20.182;2024-01-07T10:58:52;-4.30;93.75
75022;SHT31;63583;49.976;20.182;2024-01-07T11:01:20;-4.32;94.18
75022;SHT31;63583;49.976;20.182;2024-01-07T11:04:17;-4.39;94.23
75022;SHT31;63583;49.976;20.182;2024-01-07T11:06:55;-4.33;93.62
75022;SHT31;63583;49.976;20.182;2024-01-07T11:10:31;-4.40;94.15
75022;SHT31;63583;49.976;20.182;2024-01-07T11:12:24;-4.43;94.10
75022;SHT31;63583;49.976;20.182;2024-01-07T11:14:49;-4.47;94.26
75022;SHT31;63583;49.976;20.182;2024-01-07T11:20:20;-4.40;93.72
75022;SHT31;63583;49.976;20.182;2024-01-07T11:22:46;-4.33;94.51
75022;SHT31;63583;49.976;20.182;2024-01-07T11:25:29;-4.25;95.10
75022;SHT31;63583;49.976;20.182;2024-01-07T11:28:01;-4.52;93.41
75022;SHT31;63583;49.976;20.182;2024-01-07T11:30:27;-4.36;93.93
75022;SHT31;63583;49.976;20.182;2024-01-07T11:32:59;-4.40;92.91
75022;SHT31;63583;49.976;20.182;2024-01-07T11:36:01;-4.25;92.93
75022;SHT31;63583;49.976;20.182;2024-01-07T11:38:28;-4.18;92.19
75022;SHT31;63583;49.976;20.182;2024-01-07T11:40:55;-4.28;93.01
75022;SHT31;63583;49.976;20.182;2024-01-07T11:43:22;-4.18;93.06
75022;SHT31;63583;49.976;20.182;2024-01-07T11:45:49;-4.16;92.64
75022;SHT31;63583;49.976;20.182;2024-01-07T11:48:16;-4.16;93.42
75022;SHT31;63583;49.976;20.182;2024-01-07T11:50:42;-4.10;93.39
75022;SHT31;63583;49.976;20.182;2024-01-07T11:53:08;-4.18;93.51
75022;SHT31;63583;49.976;20.182;2024-01-07T11:55:34;-4.09;93.54
75022;SHT31;63583;49.976;20.182;2024-01-07T11:58:03;-4.05;92.97
75022;SHT31;63583;49.976;20.182;2024-01-07T12:00:35;-4.09;92.47
75022;SHT31;63583;49.976;20.182;2024-01-07T12:03:04;-4.15;94.00
75022;SHT31;63583;49.976;20.182;2024-01-07T12:05:30;-4.08;93.75
75022;SHT31;63583;49.976;20.182;2024-01-07T12:07:57;-4.20;93.29
75022;SHT31;63583;49.976;20.182;2024-01-07T12:10:23;-4.25;93.26
75022;SHT31;63583;49.976;20.182;2024-01-07T12:12:50;-4.13;93.05
75022;SHT31;63583;49.976;20.182;2024-01-07T12:15:20;-4.37;92.92
75022;SHT31;63583;49.976;20.182;2024-01-07T12:17:57;-4.42;93.60
75022;SHT31;63583;49.976;20.182;2024-01-07T12:20:24;-4.50;92.81
75022;SHT31;63583;49.976;20.182;2024-01-07T12:22:50;-4.50;94.07
75022;SHT31;63583;49.976;20.182;2024-01-07T12:25:21;-4.36;93.93
75022;SHT31;63583;49.976;20.182;2024-01-07T12:27:52;-4.53;94.25
75022;SHT31;63583;49.976;20.182;2024-01-07T12:30:19;-4.49;94.42
75022;SHT31;63583;49.976;20.182;2024-01-07T12:32:46;-4.58;94.13
75022;SHT31;63583;49.976;20.182;2024-01-07T12:35:12;-4.64;94.02
75022;SHT31;63583;49.976;20.182;2024-01-07T12:37:38;-4.70;94.32
75022;SHT31;63583;49.976;20.182;2024-01-07T12:40:05;-4.68;94.43
75022;SHT31;63583;49.976;20.182;2024-01-07T12:42:34;-4.63;94.85
75022;SHT31;63583;49.976;20.182;2024-01-07T12:45:00;-4.77;93.78
75022;SHT31;63583;49.976;20.182;2024-01-07T12:47:26;-4.66;94.35
75022;SHT31;63583;49.976;20.182;2024-01-07T12:49:52;-4.54;94.39
75022;SHT31;63583;49.976;20.182;2024-01-07T12:52:18;-4.56;94.13
75022;SHT31;63583;49.976;20.182;2024-01-07T12:54:44;-4.63;93.76
75022;SHT31;63583;49.976;20.182;2024-01-07T12:57:10;-4.78;93.82
75022;SHT31;63583;49.976;20.182;2024-01-07T12:59:36;-4.87;94.40
75022;SHT31;63583;49.976;20.182;2024-01-07T13:02:02;-4.94;93.48
75022;SHT31;63583;49.976;20.182;2024-01-07T13:04:30;-4.96;93.52
75022;SHT31;63583;49.976;20.182;2024-01-07T13:06:58;-4.91;93.60
75022;SHT31;63583;49.976;20.182;2024-01-07T13:09:24;-4.85;94.06
75022;SHT31;63583;49.976;20.182;2024-01-07T13:11:50;-4.77;94.22
75022;SHT31;63583;49.976;20.182;2024-01-07T13:14:18;-4.71;94.40
75022;SHT31;63583;49.976;20.182;2024-01-07T13:16:44;-4.88;94.39
75022;SHT31;63583;49.976;20.182;2024-01-07T13:19:12;-4.87;94.86
75022;SHT31;63583;49.976;20.182;2024-01-07T13:21:38;-4.78;94.81
75022;SHT31;63583;49.976;20.182;2024-01-07T13:24:05;-4.63;95.44
75022;SHT31;63583;49.976;20.182;2024-01-07T13:26:31;-4.54;94.96
75022;SHT31;63583;49.976;20.182;2024-01-07T13:28:58;-4.63;94.13
75022;SHT31;63583;49.976;20.182;2024-01-07T13:31:24;-4.67;94.21
75022;SHT31;63583;49.976;20.182;2024-01-07T13:33:50;-4.80;94.10
75022;SHT31;63583;49.976;20.182;2024-01-07T13:36:16;-4.76;94.64
75022;SHT31;63583;49.976;20.182;2024-01-07T13:38:42;-4.91;93.71
75022;SHT31;63583;49.976;20.182;2024-01-07T13:41:09;-5.02;92.26
75022;SHT31;63583;49.976;20.182;2024-01-07T13:43:35;-4.94;93.67
75022;SHT31;63583;49.976;20.182;2024-01-07T13:46:03;-4.92;93.92
75022;SHT31;63583;49.976;20.182;2024-01-07T13:48:29;-5.04;94.12
75022;SHT31;63583;49.976;20.182;2024-01-07T13:50:56;-5.02;94.79
75022;SHT31;63583;49.976;20.182;2024-01-07T13:53:26;-5.04;94.95
75022;SHT31;63583;49.976;20.182;2024-01-07T13:55:52;-5.06;95.41
75022;SHT31;63583;49.976;20.182;2024-01-07T13:58:18;-5.06;95.64
75022;SHT31;63583;49.976;20.182;2024-01-07T14:00:45;-5.17;95.01
75022;SHT31;63583;49.976;20.182;2024-01-07T14:03:13;-5.09;95.56
75022;SHT31;63583;49.976;20.182;2024-01-07T14:05:41;-5.16;95.59
75022;SHT31;63583;49.976;20.182;2024-01-07T14:08:07;-5.16;96.02
75022;SHT31;63583;49.976;20.182;2024-01-07T14:10:35;-5.20;96.46
75022;SHT31;63583;49.976;20.182;2024-01-07T14:13:02;-5.22;96.10
75022;SHT31;63583;49.976;20.182;2024-01-07T14:15:28;-5.23;96.39
75022;SHT31;63583;49.976;20.182;2024-01-07T14:17:54;-5.27;96.09
75022;SHT31;63583;49.976;20.182;2024-01-07T14:20:20;-5.29;95.33
75022;SHT31;63583;49.976;20.182;2024-01-07T14:22:48;-5.35;95.65
75022;SHT31;63583;49.976;20.182;2024-01-07T14:25:14;-5.36;96.57
75022;SHT31;63583;49.976;20.182;2024-01-07T14:27:40;-5.39;96.44
75022;SHT31;63583;49.976;20.182;2024-01-07T14:30:06;-5.39;95.53
75022;SHT31;63583;49.976;20.182;2024-01-07T14:32:33;-5.42;94.45
75022;SHT31;63583;49.976;20.182;2024-01-07T14:34:59;-5.62;95.19
75022;SHT31;63583;49.976;20.182;2024-01-07T14:37:25;-5.67;95.53
75022;SHT31;63583;49.976;20.182;2024-01-07T14:39:53;-5.70;95.75
75022;SHT31;63583;49.976;20.182;2024-01-07T14:42:19;-5.73;96.35
75022;SHT31;63583;49.976;20.182;2024-01-07T14:44:45;-5.73;96.27
75022;SHT31;63583;49.976;20.182;2024-01-07T14:47:11;-5.78;95.97
75022;SHT31;63583;49.976;20.182;2024-01-07T14:49:36;-5.83;96.09
75022;SHT31;63583;49.976;20.182;2024-01-07T14:52:02;-5.84;96.00
75022;SHT31;63583;49.976;20.182;2024-01-07T14:54:28;-5.94;95.91
75022;SHT31;63583;49.976;20.182;2024-01-07T14:56:56;-5.92;96.64
75022;SHT31;63583;49.976;20.182;2024-01-07T14:59:22;-5.99;96.08
75022;SHT31;63583;49.976;20.182;2024-01-07T15:01:48;-6.01;95.91
75022;SHT31;63583;49.976;20.182;2024-01-07T15:04:14;-6.04;96.08
75022;SHT31;63583;49.976;20.182;2024-01-07T15:06:43;-6.11;95.55
75022;SHT31;63583;49.976;20.182;2024-01-07T15:09:09;-6.21;96.01
75022;SHT31;63583;49.976;20.182;2024-01-07T15:11:36;-6.26;97.40
75022;SHT31;63583;49.976;20.182;2024-01-07T15:14:08;-6.26;97.70
75022;SHT31;63583;49.976;20.182;2024-01-07T15:16:35;-6.30;97.24